Time;durP1;ratioP1;P1;durP2;ratioP2;P2;SDS_P1;SDS_P2;PMS_P1;PMS_P2;Temp;Humidity;BMP_temperature;BMP_pressure;BME280_temperature;BME280_humidity;BME280_pressure;Samples;Min_cycle;Max_cycle;Signal;HPM_P1;HPM_P2
2022/12/18 00:00:13;;;;;;;28.30;17.47;;;;;;;-2.52;100.00;97418.31;4876021;28;105312;-72
2022/12/18 00:02:45;;;;;;;27.07;17.37;;;;;;;-2.41;100.00;97428.56;4875675;28;102105;-72
2022/12/18 00:05:13;;;;;;;27.77;16.27;;;;;;;-2.38;100.00;97432.66;4876051;28;105930;-72
2022/12/18 00:07:39;;;;;;;29.40;17.77;;;;;;;-2.52;100.00;97426.13;4875529;28;105927;-72
2022/12/18 00:10:07;;;;;;;28.40;17.70;;;;;;;-2.47;100.00;97423.94;4879578;28;101955;-71
2022/12/18 00:12:36;;;;;;;29.97;18.00;;;;;;;-2.51;100.00;97422.56;4875387;28;104253;-72
2022/12/18 00:15:03;;;;;;;32.80;19.07;;;;;;;-2.48;100.00;97417.09;4876225;28;101886;-72
2022/12/18 00:17:30;;;;;;;35.13;20.13;;;;;;;-2.57;100.00;97419.75;4876053;28;105009;-72
2022/12/18 00:19:58;;;;;;;35.67;19.77;;;;;;;-2.67;100.00;97416.34;4875380;28;107069;-72
2022/12/18 00:22:24;;;;;;;32.17;18.77;;;;;;;-2.66;100.00;97420.59;4876397;28;101945;-72
2022/12/18 00:24:51;;;;;;;36.13;19.27;;;;;;;-2.67;100.00;97422.38;4875994;28;105397;-72
2022/12/18 00:27:18;;;;;;;33.43;19.83;;;;;;;-2.75;100.00;97419.69;4893297;28;101711;-72
2022/12/18 00:29:46;;;;;;;35.07;19.47;;;;;;;-2.75;100.00;97422.28;4875801;28;101898;-72
2022/12/18 00:32:13;;;;;;;35.23;19.63;;;;;;;-2.77;100.00;97412.97;4894152;28;104769;-72
2022/12/18 00:34:40;;;;;;;39.67;19.40;;;;;;;-2.78;100.00;97422.56;4876041;28;101887;-72
2022/12/18 00:37:07;;;;;;;35.10;20.07;;;;;;;-2.92;100.00;97423.03;4902572;28;101908;-72
2022/12/18 00:39:34;;;;;;;35.13;20.10;;;;;;;-2.76;100.00;97420.66;4893619;28;104017;-72
2022/12/18 00:44:47;;;;;;;32.93;19.87;;;;;;;-2.78;100.00;97409.53;4895102;28;106527;-72
2022/12/18 00:47:14;;;;;;;37.40;20.03;;;;;;;-2.70;100.00;97412.25;4894242;28;105516;-72
2022/12/18 00:49:41;;;;;;;36.23;20.03;;;;;;;-2.84;100.00;97410.13;4912367;28;101859;-72
2022/12/18 00:52:09;;;;;;;35.60;19.97;;;;;;;-2.90;100.00;97415.88;4911813;28;102510;-72
2022/12/18 00:54:37;;;;;;;35.30;20.23;;;;;;;-3.08;100.00;97415.00;4897470;28;105382;-72
2022/12/18 00:57:04;;;;;;;33.30;19.63;;;;;;;-3.12;100.00;97421.44;4894270;28;105431;-72
2022/12/18 00:59:31;;;;;;;34.87;19.53;;;;;;;-3.14;100.00;97418.16;4893539;28;105213;-72
2022/12/18 01:02:00;;;;;;;36.20;19.40;;;;;;;-2.96;100.00;97429.47;4894717;28;102018;-72
2022/12/18 01:04:27;;;;;;;36.33;20.50;;;;;;;-2.98;100.00;97423.59;4897079;28;104727;-72
2022/12/18 01:06:54;;;;;;;36.20;19.77;;;;;;;-3.05;100.00;97424.31;4914211;28;102823;-72
2022/12/18 01:09:21;;;;;;;43.37;21.90;;;;;;;-3.01;100.00;97428.28;4897081;28;102201;-72
2022/12/18 01:11:48;;;;;;;36.57;20.57;;;;;;;-3.21;100.00;97429.28;4897555;28;105666;-72
2022/12/18 01:14:15;;;;;;;39.03;20.67;;;;;;;-3.12;100.00;97428.44;4915751;28;102823;-72
2022/12/18 01:16:42;;;;;;;38.27;20.80;;;;;;;-3.02;100.00;97437.84;4901821;28;101943;-72
2022/12/18 01:19:12;;;;;;;34.57;20.57;;;;;;;-2.93;100.00;97446.59;4915236;28;102566;-72
2022/12/18 01:21:39;;;;;;;39.73;20.90;;;;;;;-2.94;100.00;97451.00;4898388;28;101960;-72
2022/12/18 01:24:06;;;;;;;41.57;22.57;;;;;;;-2.93;100.00;97442.22;4897553;28;105386;-72
2022/12/18 01:26:34;;;;;;;39.23;20.43;;;;;;;-2.93;100.00;97450.03;4914851;28;102591;-72
2022/12/18 01:29:01;;;;;;;38.10;21.17;;;;;;;-2.80;100.00;97447.91;4897470;28;102086;-72
2022/12/18 01:31:32;;;;;;;43.13;23.17;;;;;;;-2.95;100.00;97451.13;4915739;28;102304;-72
2022/12/18 01:34:03;;;;;;;40.93;22.40;;;;;;;-2.96;100.00;97449.50;4914190;28;102613;-72
2022/12/18 01:36:33;;;;;;;44.83;23.23;;;;;;;-3.04;100.00;97444.97;4896602;28;101862;-72
2022/12/18 01:39:02;;;;;;;40.30;22.13;;;;;;;-3.04;100.00;97450.19;4900412;28;105502;-72
2022/12/18 01:42:01;;;;;;;41.97;22.77;;;;;;;-2.93;100.00;97455.22;4896935;28;102356;-72
2022/12/18 01:45:04;;;;;;;41.43;22.23;;;;;;;-2.94;100.00;97458.78;4896786;28;103877;-72
2022/12/18 01:47:35;;;;;;;44.50;21.83;;;;;;;-3.07;100.00;97463.47;4896129;28;105537;-72
2022/12/18 01:50:07;;;;;;;39.63;21.43;;;;;;;-3.17;100.00;97473.06;4897665;28;101931;-72
2022/12/18 01:52:40;;;;;;;35.23;19.97;;;;;;;-3.08;100.00;97479.22;4897711;28;106163;-72
2022/12/18 01:55:10;;;;;;;36.77;19.50;;;;;;;-3.59;100.00;97483.91;4896098;28;106050;-72
2022/12/18 01:57:38;;;;;;;32.97;19.63;;;;;;;-3.60;100.00;97485.69;4913770;28;101913;-72
2022/12/18 02:00:09;;;;;;;37.47;20.17;;;;;;;-3.71;100.00;97490.22;4901158;28;104891;-72
2022/12/18 02:02:43;;;;;;;38.27;19.20;;;;;;;-3.75;100.00;97492.25;4915773;28;101992;-72
2022/12/18 02:05:12;;;;;;;37.27;20.00;;;;;;;-3.62;100.00;97489.38;4897876;28;105252;-72
2022/12/18 02:07:49;;;;;;;35.07;19.70;;;;;;;-3.54;100.00;97492.13;4896701;28;106011;-72
2022/12/18 02:10:25;;;;;;;37.80;20.90;;;;;;;-3.49;100.00;97501.13;4897950;28;101809;-72
2022/12/18 02:12:57;;;;;;;35.50;19.50;;;;;;;-3.71;100.00;97496.22;4897725;28;105656;-72
2022/12/18 02:15:33;;;;;;;36.87;20.67;;;;;;;-3.56;100.00;97486.25;4897145;28;105490;-72
2022/12/18 02:18:07;;;;;;;34.33;20.40;;;;;;;-3.66;100.00;97488.03;4897434;28;101970;-72
2022/12/18 02:20:38;;;;;;;36.30;19.90;;;;;;;-3.78;100.00;97479.53;4897328;28;105655;-72
2022/12/18 02:23:23;;;;;;;37.10;21.13;;;;;;;-3.67;100.00;97476.78;4917200;28;103157;-72
2022/12/18 02:26:11;;;;;;;35.80;20.67;;;;;;;-3.49;100.00;97484.75;4914135;28;102653;-73
2022/12/18 02:28:43;;;;;;;40.80;20.67;;;;;;;-3.34;100.00;97480.78;4896042;28;105626;-72
2022/12/18 02:31:16;;;;;;;38.43;20.93;;;;;;;-3.30;100.00;97480.34;4897663;28;102242;-72
2022/12/18 02:33:46;;;;;;;39.83;21.43;;;;;;;-3.49;100.00;97480.34;4914992;28;103082;-72
2022/12/18 02:36:15;;;;;;;48.13;23.43;;;;;;;-3.44;100.00;97485.94;4894901;28;105499;-72
2022/12/18 02:38:45;;;;;;;40.03;21.73;;;;;;;-3.33;100.00;97482.41;4895517;28;101779;-73
2022/12/18 02:41:17;;;;;;;43.00;22.47;;;;;;;-3.13;100.00;97469.22;4896075;28;105206;-72
2022/12/18 02:43:54;;;;;;;44.53;23.27;;;;;;;-3.10;100.00;97475.94;4895378;28;104854;-72
2022/12/18 02:46:32;;;;;;;40.07;21.77;;;;;;;-3.13;100.00;97466.63;4899774;28;101953;-72
2022/12/18 02:49:21;;;;;;;41.53;23.20;;;;;;;-3.06;100.00;97478.09;4881753;28;105335;-72
2022/12/18 02:51:54;;;;;;;44.40;23.33;;;;;;;-2.96;100.00;97472.91;4896838;28;101922;-72
2022/12/18 02:54:37;;;;;;;42.60;22.50;;;;;;;-2.95;100.00;97475.34;4896433;28;105039;-72
2022/12/18 02:57:15;;;;;;;43.93;23.53;;;;;;;-2.90;100.00;97475.75;4912979;28;103071;-72
2022/12/18 02:59:56;;;;;;;40.87;21.53;;;;;;;-2.93;100.00;97472.59;4896577;28;102138;-72
2022/12/18 03:02:28;;;;;;;38.93;21.53;;;;;;;-3.01;100.00;97475.91;4896487;28;105131;-73
2022/12/18 03:05:02;;;;;;;39.80;20.90;;;;;;;-3.03;100.00;97475.25;4895942;28;105658;-72
2022/12/18 03:07:37;;;;;;;41.47;22.63;;;;;;;-2.97;100.00;97481.66;4895662;28;101984;-72
2022/12/18 03:10:12;;;;;;;41.47;22.53;;;;;;;-2.91;100.00;97481.91;4899756;28;105256;-73
2022/12/18 03:12:45;;;;;;;48.87;24.27;;;;;;;-3.01;100.00;97475.91;4896059;28;102105;-73
2022/12/18 03:15:19;;;;;;;46.33;24.20;;;;;;;-3.09;100.00;97469.75;4896050;28;105284;-73
2022/12/18 03:17:56;;;;;;;52.70;27.37;;;;;;;-3.36;100.00;97475.69;4896589;28;105561;-73
2022/12/18 03:20:28;;;;;;;44.67;23.60;;;;;;;-3.24;100.00;97474.59;4897464;28;102158;-72
2022/12/18 03:23:08;;;;;;;47.97;25.17;;;;;;;-3.25;100.00;97472.94;4897392;28;104447;-72
2022/12/18 03:25:38;;;;;;;49.70;25.80;;;;;;;-3.21;100.00;97473.50;4896300;28;105132;-73
2022/12/18 03:28:11;;;;;;;50.40;25.40;;;;;;;-3.24;100.00;97478.97;4896753;28;101844;-72
2022/12/18 03:30:42;;;;;;;43.17;24.00;;;;;;;-3.17;100.00;97475.66;4913223;28;102896;-72
2022/12/18 03:33:14;;;;;;;40.77;22.17;;;;;;;-3.00;100.00;97479.34;4897677;28;105471;-73
2022/12/18 03:35:45;;;;;;;39.63;21.33;;;;;;;-3.18;100.00;97484.44;4895310;28;105020;-72
2022/12/18 03:38:14;;;;;;;39.93;23.30;;;;;;;-3.12;100.00;97483.88;4911958;28;102009;-73
2022/12/18 03:40:53;;;;;;;41.93;22.50;;;;;;;-3.00;100.00;97477.53;4895289;28;102111;-73
2022/12/18 03:43:42;;;;;;;43.93;22.40;;;;;;;-3.06;100.00;97478.09;4895712;28;104769;-73
2022/12/18 03:46:20;;;;;;;42.60;22.73;;;;;;;-2.98;100.00;97482.63;4894716;28;104900;-73
2022/12/18 03:48:57;;;;;;;45.37;23.33;;;;;;;-3.14;100.00;97466.75;4914356;28;101724;-72
2022/12/18 03:51:30;;;;;;;43.33;23.23;;;;;;;-3.06;100.00;97462.50;4897314;28;105496;-72
2022/12/18 03:54:01;;;;;;;46.60;23.50;;;;;;;-3.06;100.00;97466.91;4893807;28;105637;-73
2022/12/18 03:56:37;;;;;;;44.83;22.97;;;;;;;-3.04;100.00;97465.78;4898534;28;101966;-72
2022/12/18 03:59:10;;;;;;;46.67;25.00;;;;;;;-2.97;100.00;97464.25;4894352;28;105595;-72
2022/12/18 04:01:43;;;;;;;46.73;25.17;;;;;;;-2.80;100.00;97466.13;4897323;28;101921;-73
2022/12/18 04:04:17;;;;;;;47.57;24.13;;;;;;;-2.76;100.00;97469.25;4897850;28;105186;-73
2022/12/18 04:06:48;;;;;;;46.97;24.50;;;;;;;-2.77;100.00;97465.88;4895150;28;105072;-73
2022/12/18 04:09:20;;;;;;;45.57;23.07;;;;;;;-2.80;100.00;97460.94;4895062;28;101855;-73
2022/12/18 04:11:52;;;;;;;41.20;23.67;;;;;;;-2.77;100.00;97462.44;4894574;28;104833;-73
2022/12/18 04:14:21;;;;;;;44.87;23.63;;;;;;;-2.74;100.00;97469.97;4913255;28;102533;-72
2022/12/18 04:16:53;;;;;;;46.43;23.77;;;;;;;-2.77;100.00;97467.63;4897939;28;101934;-73
2022/12/18 04:19:26;;;;;;;47.50;24.60;;;;;;;-2.71;100.00;97473.09;4894268;28;104063;-72
2022/12/18 04:21:55;;;;;;;41.93;23.20;;;;;;;-3.04;100.00;97481.41;4895690;28;102126;-73
2022/12/18 04:24:22;;;;;;;42.97;22.53;;;;;;;-3.26;100.00;97486.09;4912214;28;102360;-73
2022/12/18 04:27:03;;;;;;;44.33;22.77;;;;;;;-3.39;100.00;97477.75;4895708;28;105304;-73
2022/12/18 04:29:37;;;;;;;44.40;22.30;;;;;;;-3.43;100.00;97479.00;4897085;28;101956;-73
2022/12/18 04:32:05;;;;;;;42.97;21.77;;;;;;;-3.38;100.00;97471.59;4896562;28;105307;-73
2022/12/18 04:34:32;;;;;;;44.93;22.43;;;;;;;-3.41;100.00;97472.69;4895014;28;105077;-73
2022/12/18 04:37:00;;;;;;;41.90;22.17;;;;;;;-3.37;100.00;97481.88;4895627;28;102124;-72
2022/12/18 04:39:27;;;;;;;41.40;20.57;;;;;;;-3.45;100.00;97480.91;4899534;28;104939;-73
2022/12/18 04:41:59;;;;;;;42.07;20.90;;;;;;;-3.59;100.00;97479.53;4894414;28;101871;-73
2022/12/18 04:44:30;;;;;;;36.97;21.07;;;;;;;-3.64;100.00;97492.13;4896135;28;104861;-72
2022/12/18 04:46:58;;;;;;;38.47;20.00;;;;;;;-3.67;100.00;97500.19;4911886;28;103040;-73
2022/12/18 04:49:25;;;;;;;36.80;20.37;;;;;;;-3.70;100.00;97484.88;4912641;28;101902;-73
2022/12/18 04:51:52;;;;;;;39.53;20.90;;;;;;;-3.77;100.00;97472.56;4913564;28;102573;-73
2022/12/18 04:54:21;;;;;;;36.70;19.97;;;;;;;-3.79;100.00;97484.84;4912313;28;102575;-72
2022/12/18 04:56:49;;;;;;;37.83;20.43;;;;;;;-3.90;100.00;97493.59;4896125;28;102385;-73
2022/12/18 04:59:18;;;;;;;40.07;19.90;;;;;;;-3.93;100.00;97493.06;4895116;28;105111;-73
2022/12/18 05:01:45;;;;;;;37.60;19.20;;;;;;;-3.97;100.00;97495.09;4898649;28;105376;-73
2022/12/18 05:04:17;;;;;;;42.87;21.63;;;;;;;-3.99;100.00;97493.59;4896533;28;104929;-73
2022/12/18 05:06:44;;;;;;;39.30;19.37;;;;;;;-3.94;100.00;97505.22;4912767;28;102584;-73
2022/12/18 05:09:11;;;;;;;41.17;19.60;;;;;;;-3.95;100.00;97507.94;4912075;28;101711;-73
2022/12/18 05:11:38;;;;;;;44.27;21.03;;;;;;;-4.00;100.00;97523.94;4894328;28;105259;-73
2022/12/18 05:14:05;;;;;;;37.90;20.13;;;;;;;-4.08;100.00;97518.59;4895028;28;105613;-73
2022/12/18 05:16:32;;;;;;;41.03;20.00;;;;;;;-4.26;100.00;97525.34;4912181;28;101802;-73
2022/12/18 05:18:59;;;;;;;35.87;19.37;;;;;;;-4.28;100.00;97532.47;4895336;28;105307;-73
2022/12/18 05:21:28;;;;;;;38.10;20.70;;;;;;;-4.20;100.00;97521.44;4911578;28;102592;-73
2022/12/18 05:23:55;;;;;;;40.07;20.27;;;;;;;-4.20;100.00;97524.81;4897822;28;101967;-73
2022/12/18 05:26:22;;;;;;;40.10;20.30;;;;;;;-4.19;100.00;97525.66;4911701;28;103119;-73
2022/12/18 05:28:49;;;;;;;41.30;20.17;;;;;;;-4.25;100.00;97531.38;4893517;28;101925;-73
2022/12/18 05:31:17;;;;;;;36.83;18.33;;;;;;;-4.16;100.00;97539.19;4894422;28;101863;-73
2022/12/18 05:33:44;;;;;;;37.63;20.43;;;;;;;-4.15;100.00;97538.25;4894621;28;105094;-73
2022/12/18 05:36:13;;;;;;;34.33;18.37;;;;;;;-4.19;100.00;97538.66;4913303;28;101950;-73
2022/12/18 05:38:42;;;;;;;37.60;19.30;;;;;;;-4.21;100.00;97564.72;4894433;28;105638;-73
2022/12/18 05:41:09;;;;;;;34.47;19.13;;;;;;;-4.26;100.00;97566.09;4893866;28;105509;-73
2022/12/18 05:43:39;;;;;;;33.27;18.37;;;;;;;-4.27;100.00;97560.06;4911748;28;101805;-73
2022/12/18 05:46:06;;;;;;;33.50;18.37;;;;;;;-4.20;100.00;97556.00;4898155;28;105613;-73
2022/12/18 05:48:35;;;;;;;37.03;19.67;;;;;;;-4.26;100.00;97551.31;4896644;28;101933;-73
2022/12/18 05:51:07;;;;;;;35.70;18.50;;;;;;;-4.09;100.00;97557.69;4916667;28;102630;-73
2022/12/18 05:53:34;;;;;;;34.33;18.60;;;;;;;-4.18;100.00;97561.06;4897619;28;105700;-73
2022/12/18 05:56:04;;;;;;;34.47;18.10;;;;;;;-4.15;100.00;97568.59;4915255;28;101935;-73
2022/12/18 05:58:33;;;;;;;35.30;17.93;;;;;;;-4.14;100.00;97568.44;4896894;28;107117;-73
2022/12/18 06:01:09;;;;;;;32.73;18.33;;;;;;;-4.27;100.00;97567.84;4897969;28;105212;-73
2022/12/18 06:03:37;;;;;;;36.53;18.00;;;;;;;-4.32;100.00;97559.63;4914986;28;102681;-73
2022/12/18 06:06:04;;;;;;;31.20;17.10;;;;;;;-4.49;100.00;97549.88;4897423;28;105151;-72
2022/12/18 06:08:30;;;;;;;28.03;16.27;;;;;;;-4.27;100.00;97557.47;4919447;28;101924;-72
2022/12/18 06:10:58;;;;;;;32.60;17.77;;;;;;;-4.23;100.00;97561.47;4915772;28;102321;-72
2022/12/18 06:13:26;;;;;;;31.43;17.93;;;;;;;-4.31;100.00;97563.06;4898812;28;104083;-73
2022/12/18 06:15:56;;;;;;;33.33;17.87;;;;;;;-4.31;100.00;97574.25;4898568;28;101815;-72
2022/12/18 06:18:22;;;;;;;32.03;17.73;;;;;;;-4.40;100.00;97577.66;4896774;28;105001;-73
2022/12/18 06:20:56;;;;;;;34.20;17.93;;;;;;;-4.58;100.00;97581.78;4898383;28;105398;-73
2022/12/18 06:23:23;;;;;;;35.10;18.63;;;;;;;-4.81;100.00;97582.06;4899262;28;102225;-73
2022/12/18 06:25:50;;;;;;;35.93;18.43;;;;;;;-4.89;100.00;97577.50;4898725;28;104185;-73
2022/12/18 06:28:17;;;;;;;34.10;17.57;;;;;;;-4.83;100.00;97583.94;4901976;28;105782;-73
2022/12/18 06:30:46;;;;;;;33.27;17.63;;;;;;;-4.74;100.00;97586.59;4898793;28;105375;-72
2022/12/18 06:33:12;;;;;;;36.17;17.93;;;;;;;-4.82;100.00;97578.63;4898106;28;105134;-73
2022/12/18 06:35:41;;;;;;;32.27;17.73;;;;;;;-4.86;100.00;97577.25;4897307;28;102065;-73
2022/12/18 06:38:08;;;;;;;40.13;17.53;;;;;;;-4.90;100.00;97586.25;4896333;28;104948;-73
2022/12/18 06:40:38;;;;;;;38.37;18.27;;;;;;;-4.86;100.00;97582.44;4896428;28;105431;-73
2022/12/18 06:43:05;;;;;;;33.80;16.87;;;;;;;-4.80;100.00;97578.53;4896983;28;102035;-76
2022/12/18 06:45:32;;;;;;;42.90;18.83;;;;;;;-4.77;100.00;97581.69;4896575;28;104960;-73
2022/12/18 06:48:01;;;;;;;41.00;19.00;;;;;;;-4.81;100.00;97580.28;4879915;28;105075;-74
2022/12/18 06:50:28;;;;;;;37.57;19.13;;;;;;;-4.81;100.00;97584.66;4899857;28;101965;-74
2022/12/18 06:52:55;;;;;;;38.43;19.53;;;;;;;-4.95;100.00;97578.03;4896127;28;105173;-74
2022/12/18 06:55:22;;;;;;;37.27;19.17;;;;;;;-5.08;100.00;97584.34;4895787;28;101967;-74
2022/12/18 06:57:49;;;;;;;41.17;19.73;;;;;;;-5.04;100.00;97585.72;4895727;28;104919;-74
2022/12/18 07:00:16;;;;;;;37.33;18.63;;;;;;;-4.98;100.00;97588.63;4897619;28;103873;-73
2022/12/18 07:02:43;;;;;;;38.40;19.57;;;;;;;-4.86;100.00;97587.63;4897848;28;101939;-74
2022/12/18 07:05:11;;;;;;;39.97;19.33;;;;;;;-4.89;100.00;97587.06;4896365;28;105208;-73
2022/12/18 07:07:38;;;;;;;37.30;19.33;;;;;;;-4.92;100.00;97592.50;4896929;28;105452;-73
2022/12/18 07:10:06;;;;;;;37.83;18.50;;;;;;;-5.02;100.00;97602.78;4896166;28;102061;-74
2022/12/18 07:12:33;;;;;;;39.17;18.70;;;;;;;-5.01;100.00;97614.00;4898632;28;104876;-74
2022/12/18 07:15:00;;;;;;;37.63;19.13;;;;;;;-5.01;100.00;97609.66;4897037;28;102001;-73
2022/12/18 07:17:27;;;;;;;37.17;19.23;;;;;;;-5.00;100.00;97611.28;4914001;28;101643;-73
2022/12/18 07:19:53;;;;;;;35.67;18.43;;;;;;;-4.97;100.00;97610.22;4895676;28;105064;-74
2022/12/18 07:22:22;;;;;;;37.60;19.47;;;;;;;-4.88;100.00;97609.44;4895267;28;101979;-74
2022/12/18 07:24:50;;;;;;;37.53;18.57;;;;;;;-4.95;100.00;97610.91;4894857;28;105020;-74
2022/12/18 07:27:18;;;;;;;38.23;19.47;;;;;;;-4.99;100.00;97619.88;4894495;28;103771;-74
2022/12/18 07:29:44;;;;;;;38.13;18.60;;;;;;;-4.92;100.00;97619.25;4894718;28;101976;-74
2022/12/18 07:32:11;;;;;;;38.60;19.00;;;;;;;-4.89;100.00;97624.19;4895031;28;104138;-74
2022/12/18 07:34:39;;;;;;;35.03;17.77;;;;;;;-4.81;100.00;97634.75;4897558;28;104348;-74
2022/12/18 07:37:06;;;;;;;35.93;19.50;;;;;;;-4.73;100.00;97640.16;4894854;28;105647;-74
2022/12/18 07:39:34;;;;;;;31.73;17.97;;;;;;;-4.73;100.00;97634.97;4894929;28;105796;-74
2022/12/18 07:44:42;;;;;;;30.23;16.23;;;;;;;-4.70;100.00;97634.69;4894317;28;105277;-74
2022/12/18 07:47:09;;;;;;;31.10;16.77;;;;;;;-4.69;100.00;97638.13;4894103;28;105461;-74
2022/12/18 07:49:36;;;;;;;35.77;17.67;;;;;;;-4.63;100.00;97632.44;4894515;28;101916;-74
2022/12/18 07:52:03;;;;;;;35.30;18.40;;;;;;;-4.62;100.00;97640.09;4894724;28;105655;-74
2022/12/18 07:54:30;;;;;;;31.67;16.50;;;;;;;-4.59;100.00;97642.41;4895947;28;105360;-74
2022/12/18 07:56:58;;;;;;;32.37;17.83;;;;;;;-4.59;100.00;97652.81;4899423;28;101875;-74
2022/12/18 07:59:25;;;;;;;33.83;18.07;;;;;;;-4.67;100.00;97644.84;4895407;28;105447;-73
2022/12/18 08:01:52;;;;;;;33.33;18.63;;;;;;;-4.84;100.00;97652.34;4894653;28;102072;-74
2022/12/18 08:04:19;;;;;;;35.13;17.87;;;;;;;-4.76;100.00;97643.00;4896009;28;102886;-74
2022/12/18 08:06:47;;;;;;;34.27;17.03;;;;;;;-4.75;100.00;97641.22;4893861;28;105461;-73
2022/12/18 08:09:14;;;;;;;35.57;17.80;;;;;;;-4.76;100.00;97655.97;4895197;28;101860;-73
2022/12/18 08:11:41;;;;;;;32.20;17.73;;;;;;;-4.64;100.00;97654.16;4893700;28;103817;-73
2022/12/18 08:14:10;;;;;;;39.30;18.37;;;;;;;-4.46;100.00;97653.44;4893693;28;105520;-73
2022/12/18 08:16:37;;;;;;;33.57;18.13;;;;;;;-4.18;100.00;97645.00;4897773;28;101972;-73
2022/12/18 08:19:04;;;;;;;34.20;16.97;;;;;;;-4.20;100.00;97638.28;4893807;28;105146;-73
2022/12/18 08:21:32;;;;;;;41.27;19.57;;;;;;;-4.27;100.00;97643.16;4894410;28;102180;-73
2022/12/18 08:24:01;;;;;;;35.00;18.60;;;;;;;-4.24;100.00;97647.28;4894812;28;105226;-73
2022/12/18 08:26:30;;;;;;;36.03;18.13;;;;;;;-4.42;100.00;97641.84;4893488;28;105502;-73
2022/12/18 08:28:58;;;;;;;34.97;17.90;;;;;;;-4.26;100.00;97644.78;4911601;28;101833;-73
2022/12/18 08:31:29;;;;;;;35.97;18.60;;;;;;;-4.34;100.00;97649.81;4893910;28;105340;-74
2022/12/18 08:33:56;;;;;;;36.07;17.27;;;;;;;-4.31;100.00;97639.16;4893698;28;105488;-73
2022/12/18 08:36:24;;;;;;;35.07;18.20;;;;;;;-4.22;100.00;97641.00;4893572;28;101854;-73
2022/12/18 08:38:51;;;;;;;31.80;16.93;;;;;;;-4.07;100.00;97641.47;4896985;28;105242;-73
2022/12/18 08:41:19;;;;;;;36.07;18.50;;;;;;;-4.03;100.00;97646.31;4894086;28;101934;-73
2022/12/18 08:46:36;;;;;;;37.17;18.53;;;;;;;-4.02;100.00;97644.50;4896338;28;103196;-74
2022/12/18 08:49:04;;;;;;;35.63;17.40;;;;;;;-4.17;100.00;97643.19;4911437;28;101705;-74
2022/12/18 08:51:31;;;;;;;36.00;18.13;;;;;;;-4.05;100.00;97648.19;4911295;28;102296;-74
2022/12/18 08:53:58;;;;;;;31.13;16.97;;;;;;;-4.06;100.00;97651.75;4893492;28;105297;-74
2022/12/18 08:56:25;;;;;;;31.37;18.37;;;;;;;-3.96;100.00;97651.78;4894410;28;101801;-74
2022/12/18 08:58:54;;;;;;;34.37;17.50;;;;;;;-4.15;100.00;97662.91;4877750;28;105185;-74
2022/12/18 09:01:21;;;;;;;36.90;18.57;;;;;;;-4.21;100.00;97662.63;4913879;28;101996;-74
2022/12/18 09:03:49;;;;;;;35.07;18.57;;;;;;;-4.13;100.00;97663.63;4893612;28;105234;-73
2022/12/18 09:06:17;;;;;;;33.83;18.07;;;;;;;-4.06;100.00;97677.72;4893108;28;105108;-73
2022/12/18 09:08:44;;;;;;;32.90;17.10;;;;;;;-4.04;100.00;97665.41;4893479;28;102016;-73
2022/12/18 09:11:15;;;;;;;33.60;18.97;;;;;;;-3.89;100.00;97677.09;4893292;28;105037;-73
2022/12/18 09:13:42;;;;;;;31.40;17.03;;;;;;;-4.01;100.00;97680.75;4892919;28;105722;-74
2022/12/18 09:16:09;;;;;;;36.33;17.33;;;;;;;-4.01;100.00;97680.75;4893329;28;101825;-74
2022/12/18 09:18:36;;;;;;;32.70;17.67;;;;;;;-3.92;100.00;97681.75;4893259;28;105347;-74
2022/12/18 09:21:11;;;;;;;31.57;17.80;;;;;;;-3.88;100.00;97676.16;4910327;28;102907;-74
2022/12/18 09:23:38;;;;;;;33.83;17.30;;;;;;;-3.93;100.00;97672.31;4898208;28;101881;-74
2022/12/18 09:26:05;;;;;;;30.60;16.53;;;;;;;-3.73;100.00;97669.66;4896127;28;105414;-74
2022/12/18 09:28:32;;;;;;;29.57;16.83;;;;;;;-3.53;100.00;97670.53;4896513;28;101921;-74
2022/12/18 09:30:59;;;;;;;31.97;17.43;;;;;;;-3.35;100.00;97671.53;4896653;28;105265;-74
2022/12/18 09:33:27;;;;;;;30.73;17.07;;;;;;;-3.37;100.00;97671.69;4896042;28;105070;-73
2022/12/18 09:35:53;;;;;;;32.30;16.50;;;;;;;-3.23;100.00;97668.69;4896383;28;101911;-73
2022/12/18 09:38:23;;;;;;;31.67;16.93;;;;;;;-3.26;100.00;97663.78;4896190;28;105277;-73
2022/12/18 09:40:52;;;;;;;29.70;15.73;;;;;;;-2.80;100.00;97660.53;4895817;28;105027;-73
2022/12/18 09:43:25;;;;;;;29.87;15.83;;;;;;;-2.66;100.00;97663.53;4896499;28;101883;-73
2022/12/18 09:45:58;;;;;;;28.93;16.27;;;;;;;-2.39;100.00;97661.03;4899166;28;105138;-73
2022/12/18 09:48:31;;;;;;;28.53;15.53;;;;;;;-2.33;100.00;97659.66;4896396;28;101852;-73
2022/12/18 09:51:03;;;;;;;29.63;16.73;;;;;;;-2.68;100.00;97660.22;4896444;28;105526;-73
2022/12/18 09:53:39;;;;;;;27.17;15.93;;;;;;;-2.56;100.00;97648.75;4913230;28;102870;-73
2022/12/18 09:56:07;;;;;;;23.90;15.03;;;;;;;-2.81;100.00;97656.25;4896054;28;101791;-73
2022/12/18 09:58:38;;;;;;;25.97;16.47;;;;;;;-2.58;100.00;97660.25;4895787;28;104845;-73
2022/12/18 10:01:11;;;;;;;26.33;14.03;;;;;;;-2.53;100.00;97647.59;4895714;28;105520;-74
2022/12/18 10:03:38;;;;;;;28.67;14.70;;;;;;;-2.53;100.00;97645.84;4896194;28;101822;-74
2022/12/18 10:06:14;;;;;;;29.83;16.90;;;;;;;-2.62;100.00;97649.25;4896086;28;105143;-74
2022/12/18 10:08:49;;;;;;;29.03;15.40;;;;;;;-3.03;100.00;97648.72;4898889;28;105191;-74
2022/12/18 10:11:51;;;;;;;24.20;14.90;;;;;;;-3.13;100.00;97645.28;4895925;28;105320;-74
2022/12/18 10:14:24;;;;;;;29.13;15.27;;;;;;;-3.10;100.00;97653.66;4893998;28;105271;-74
2022/12/18 10:16:59;;;;;;;27.37;16.07;;;;;;;-3.22;100.00;97648.72;4913475;28;101715;-74
2022/12/18 10:19:38;;;;;;;28.63;15.77;;;;;;;-3.26;100.00;97642.97;4913515;28;103091;-74
2022/12/18 10:22:17;;;;;;;26.40;14.87;;;;;;;-3.57;100.00;97648.34;4895149;28;105552;-74
2022/12/18 10:24:54;;;;;;;25.97;15.47;;;;;;;-3.52;100.00;97643.59;4895875;28;101794;-74
2022/12/18 10:27:24;;;;;;;27.87;15.70;;;;;;;-3.39;100.00;97634.56;4895766;28;105462;-74
2022/12/18 10:29:51;;;;;;;27.43;14.83;;;;;;;-3.14;100.00;97635.84;4916098;28;102918;-74
2022/12/18 10:32:19;;;;;;;28.40;15.90;;;;;;;-2.97;100.00;97623.00;4895569;28;105210;-74
2022/12/18 10:34:47;;;;;;;28.47;16.53;;;;;;;-2.60;100.00;97621.31;4895002;28;105815;-74
2022/12/18 10:37:19;;;;;;;29.40;16.27;;;;;;;-2.35;100.00;97615.50;4894932;28;101969;-74
2022/12/18 10:39:47;;;;;;;29.43;16.50;;;;;;;-2.44;100.00;97612.94;4895568;28;104992;-74
2022/12/18 10:42:18;;;;;;;27.27;15.10;;;;;;;-2.74;100.00;97613.13;4895060;28;105859;-74
2022/12/18 10:44:46;;;;;;;25.23;15.70;;;;;;;-2.80;100.00;97622.28;4895274;28;101846;-74
2022/12/18 10:47:16;;;;;;;26.80;15.83;;;;;;;-2.59;100.00;97617.75;4895501;28;105180;-74
2022/12/18 10:49:51;;;;;;;30.13;15.47;;;;;;;-2.56;100.00;97617.50;4894953;28;104974;-74
2022/12/18 10:52:20;;;;;;;27.27;16.00;;;;;;;-2.38;100.00;97597.56;4898486;28;101829;-74
2022/12/18 10:54:51;;;;;;;25.83;16.10;;;;;;;-2.42;100.00;97600.56;4912072;28;103144;-74
2022/12/18 10:57:32;;;;;;;27.80;15.77;;;;;;;-2.16;100.00;97591.19;4895325;28;101920;-74
2022/12/18 11:00:19;;;;;;;30.53;17.23;;;;;;;-2.04;100.00;97595.25;4895267;28;104875;-74
2022/12/18 11:02:46;;;;;;;30.20;16.10;;;;;;;-2.18;100.00;97596.53;4894471;28;105362;-74
2022/12/18 11:05:26;;;;;;;30.10;16.47;;;;;;;-2.24;100.00;97601.50;4894968;28;102023;-74
2022/12/18 11:07:54;;;;;;;28.87;15.73;;;;;;;-2.29;100.00;97599.31;4894844;28;105420;-74
2022/12/18 11:10:24;;;;;;;33.43;17.73;;;;;;;-2.05;100.00;97596.22;4894831;28;105070;-74
2022/12/18 11:12:51;;;;;;;36.77;18.97;;;;;;;-2.09;100.00;97590.47;4894967;28;101870;-74
2022/12/18 11:15:22;;;;;;;36.40;20.23;;;;;;;-2.17;100.00;97587.78;4897891;28;104955;-74
2022/12/18 11:17:51;;;;;;;32.80;16.77;;;;;;;-1.71;100.00;97585.06;4894892;28;101886;-74
2022/12/18 11:20:30;;;;;;;40.30;21.30;;;;;;;-1.97;100.00;97585.91;4895010;28;105368;-74
2022/12/18 11:22:59;;;;;;;36.93;19.67;;;;;;;-2.50;100.00;97590.88;4894360;28;105482;-74